sensor_id;sensor_type;location;lat;lon;timestamp;temperature;humidity
61000;SHT31;46879;45.658;11.814;2023-03-12T00:04:35;18.30;73.99
61000;SHT31;46879;45.658;11.814;2023-03-12T00:09:37;18.29;74.14
61000;SHT31;46879;45.658;11.814;2023-03-12T00:14:38;18.29;73.97
61000;SHT31;46879;45.658;11.814;2023-03-12T00:19:39;18.29;74.11
61000;SHT31;46879;45.658;11.814;2023-03-12T00:24:39;18.29;74.10
61000;SHT31;46879;45.658;11.814;2023-03-12T00:29:40;18.30;74.16
61000;SHT31;46879;45.658;11.814;2023-03-12T00:34:40;18.28;74.16
61000;SHT31;46879;45.658;11.814;2023-03-12T00:39:41;18.29;74.21
61000;SHT31;46879;45.658;11.814;2023-03-12T00:44:42;18.29;74.18
61000;SHT31;46879;45.658;11.814;2023-03-12T00:49:43;18.30;74.22
61000;SHT31;46879;45.658;11.814;2023-03-12T00:54:44;18.29;74.22
61000;SHT31;46879;45.658;11.814;2023-03-12T00:59:44;18.28;74.16
61000;SHT31;46879;45.658;11.814;2023-03-12T01:04:45;18.29;74.21
61000;SHT31;46879;45.658;11.814;2023-03-12T01:09:45;18.30;74.18
61000;SHT31;46879;45.658;11.814;2023-03-12T01:14:46;18.29;74.34
61000;SHT31;46879;45.658;11.814;2023-03-12T01:19:47;18.28;74.25
61000;SHT31;46879;45.658;11.814;2023-03-12T01:24:48;18.29;74.31
61000;SHT31;46879;45.658;11.814;2023-03-12T01:29:49;18.29;74.40
61000;SHT31;46879;45.658;11.814;2023-03-12T01:34:49;18.28;74.45
61000;SHT31;46879;45.658;11.814;2023-03-12T01:39:50;18.25;74.30
61000;SHT31;46879;45.658;11.814;2023-03-12T01:45:03;18.28;74.33
61000;SHT31;46879;45.658;11.814;2023-03-12T01:50:04;18.28;74.38
61000;SHT31;46879;45.658;11.814;2023-03-12T01:55:10;18.29;74.44
61000;SHT31;46879;45.658;11.814;2023-03-12T02:00:26;18.29;74.50
61000;SHT31;46879;45.658;11.814;2023-03-12T02:05:59;18.28;74.33
61000;SHT31;46879;45.658;11.814;2023-03-12T02:11:01;18.30;74.34
61000;SHT31;46879;45.658;11.814;2023-03-12T02:16:02;18.29;74.38
61000;SHT31;46879;45.658;11.814;2023-03-12T02:21:18;18.29;74.39
61000;SHT31;46879;45.658;11.814;2023-03-12T02:26:20;18.28;74.36
61000;SHT31;46879;45.658;11.814;2023-03-12T02:31:33;18.29;74.45
61000;SHT31;46879;45.658;11.814;2023-03-12T02:36:34;18.30;74.37
61000;SHT31;46879;45.658;11.814;2023-03-12T02:41:45;18.26;74.31
61000;SHT31;46879;45.658;11.814;2023-03-12T02:46:51;18.28;74.31
61000;SHT31;46879;45.658;11.814;2023-03-12T02:51:53;18.28;74.35
61000;SHT31;46879;45.658;11.814;2023-03-12T02:56:54;18.28;74.33
61000;SHT31;46879;45.658;11.814;2023-03-12T03:01:58;18.29;74.37
61000;SHT31;46879;45.658;11.814;2023-03-12T03:06:59;18.29;74.38
61000;SHT31;46879;45.658;11.814;2023-03-12T03:12:00;18.28;74.34
61000;SHT31;46879;45.658;11.814;2023-03-12T03:17:00;18.25;74.31
61000;SHT31;46879;45.658;11.814;2023-03-12T03:22:01;18.28;74.30
61000;SHT31;46879;45.658;11.814;2023-03-12T03:27:01;18.29;74.50
61000;SHT31;46879;45.658;11.814;2023-03-12T03:32:02;18.26;74.52
61000;SHT31;46879;45.658;11.814;2023-03-12T03:37:03;18.26;74.40
61000;SHT31;46879;45.658;11.814;2023-03-12T03:42:04;18.25;74.46
61000;SHT31;46879;45.658;11.814;2023-03-12T03:47:05;18.25;74.48
61000;SHT31;46879;45.658;11.814;2023-03-12T03:52:05;18.25;74.54
61000;SHT31;46879;45.658;11.814;2023-03-12T03:57:06;18.26;74.36
61000;SHT31;46879;45.658;11.814;2023-03-12T04:02:07;18.25;74.63
61000;SHT31;46879;45.658;11.814;2023-03-12T04:07:07;18.29;74.50
61000;SHT31;46879;45.658;11.814;2023-03-12T04:12:08;18.25;74.55
61000;SHT31;46879;45.658;11.814;2023-03-12T04:17:09;18.26;74.49
61000;SHT31;46879;45.658;11.814;2023-03-12T04:22:10;18.26;74.47
61000;SHT31;46879;45.658;11.814;2023-03-12T04:27:10;18.28;74.54
61000;SHT31;46879;45.658;11.814;2023-03-12T04:32:11;18.26;74.57
61000;SHT31;46879;45.658;11.814;2023-03-12T04:37:11;18.28;74.61
61000;SHT31;46879;45.658;11.814;2023-03-12T04:42:15;18.26;74.63
61000;SHT31;46879;45.658;11.814;2023-03-12T04:47:15;18.28;74.65
61000;SHT31;46879;45.658;11.814;2023-03-12T04:52:16;18.26;74.66
61000;SHT31;46879;45.658;11.814;2023-03-12T04:57:17;18.26;74.73
61000;SHT31;46879;45.658;11.814;2023-03-12T05:02:17;18.28;74.75
61000;SHT31;46879;45.658;11.814;2023-03-12T05:07:18;18.26;74.80
61000;SHT31;46879;45.658;11.814;2023-03-12T05:12:19;18.25;74.76
61000;SHT31;46879;45.658;11.814;2023-03-12T05:17:20;18.28;74.79
61000;SHT31;46879;45.658;11.814;2023-03-12T05:22:20;18.26;74.83
61000;SHT31;46879;45.658;11.814;2023-03-12T05:27:21;18.26;74.78
61000;SHT31;46879;45.658;11.814;2023-03-12T05:32:22;18.25;74.80
61000;SHT31;46879;45.658;11.814;2023-03-12T05:37:22;18.23;74.87
61000;SHT31;46879;45.658;11.814;2023-03-12T05:42:23;18.26;74.86
61000;SHT31;46879;45.658;11.814;2023-03-12T05:47:24;18.25;74.87
61000;SHT31;46879;45.658;11.814;2023-03-12T05:52:24;18.22;74.94
61000;SHT31;46879;45.658;11.814;2023-03-12T05:57:25;18.22;74.91
61000;SHT31;46879;45.658;11.814;2023-03-12T06:02:26;18.22;74.89
61000;SHT31;46879;45.658;11.814;2023-03-12T06:07:26;18.23;75.01
61000;SHT31;46879;45.658;11.814;2023-03-12T06:12:27;18.25;74.95
61000;SHT31;46879;45.658;11.814;2023-03-12T06:17:29;18.21;75.05
61000;SHT31;46879;45.658;11.814;2023-03-12T06:22:31;18.23;75.01
61000;SHT31;46879;45.658;11.814;2023-03-12T06:27:32;18.21;75.03
61000;SHT31;46879;45.658;11.814;2023-03-12T06:32:32;18.23;75.20
61000;SHT31;46879;45.658;11.814;2023-03-12T06:37:33;18.25;75.19
61000;SHT31;46879;45.658;11.814;2023-03-12T06:42:33;18.23;75.17
61000;SHT31;46879;45.658;11.814;2023-03-12T06:47:34;18.23;75.02
61000;SHT31;46879;45.658;11.814;2023-03-12T06:52:35;18.28;74.70
61000;SHT31;46879;45.658;11.814;2023-03-12T06:57:35;18.26;73.90
61000;SHT31;46879;45.658;11.814;2023-03-12T07:02:36;18.25;73.45
61000;SHT31;46879;45.658;11.814;2023-03-12T07:07:36;18.22;72.49
61000;SHT31;46879;45.658;11.814;2023-03-12T07:12:38;18.26;72.80
61000;SHT31;46879;45.658;11.814;2023-03-12T07:17:38;18.28;72.58
61000;SHT31;46879;45.658;11.814;2023-03-12T07:22:39;18.28;72.13
61000;SHT31;46879;45.658;11.814;2023-03-12T07:27:40;18.29;72.47
61000;SHT31;46879;45.658;11.814;2023-03-12T07:32:41;18.29;72.78
61000;SHT31;46879;45.658;11.814;2023-03-12T07:37:41;18.32;72.94
61000;SHT31;46879;45.658;11.814;2023-03-12T07:42:42;18.32;72.87
61000;SHT31;46879;45.658;11.814;2023-03-12T07:47:42;18.34;72.57
61000;SHT31;46879;45.658;11.814;2023-03-12T07:52:45;16.82;55.86
61000;SHT31;46879;45.658;11.814;2023-03-12T07:57:45;16.72;53.61
61000;SHT31;46879;45.658;11.814;2023-03-12T08:02:46;16.85;49.74
61000;SHT31;46879;45.658;11.814;2023-03-12T08:07:46;17.68;60.81
61000;SHT31;46879;45.658;11.814;2023-03-12T08:12:47;17.91;61.82
61000;SHT31;46879;45.658;11.814;2023-03-12T08:17:48;17.99;62.48
61000;SHT31;46879;45.658;11.814;2023-03-12T08:22:48;18.02;63.22
61000;SHT31;46879;45.658;11.814;2023-03-12T08:27:49;18.05;63.66
61000;SHT31;46879;45.658;11.814;2023-03-12T08:32:50;18.06;64.44
61000;SHT31;46879;45.658;11.814;2023-03-12T08:37:50;18.08;64.61
61000;SHT31;46879;45.658;11.814;2023-03-12T08:42:51;18.09;65.06
61000;SHT31;46879;45.658;11.814;2023-03-12T08:47:51;18.10;65.36
61000;SHT31;46879;45.658;11.814;2023-03-12T08:52:52;18.12;65.49
61000;SHT31;46879;45.658;11.814;2023-03-12T08:57:54;18.12;65.61
61000;SHT31;46879;45.658;11.814;2023-03-12T09:02:55;18.13;65.64
61000;SHT31;46879;45.658;11.814;2023-03-12T09:07:57;18.13;65.90
61000;SHT31;46879;45.658;11.814;2023-03-12T09:12:58;18.16;65.68
61000;SHT31;46879;45.658;11.814;2023-03-12T09:17:58;18.19;65.63
61000;SHT31;46879;45.658;11.814;2023-03-12T09:22:59;18.19;65.63
61000;SHT31;46879;45.658;11.814;2023-03-12T09:27:59;18.19;65.64
61000;SHT31;46879;45.658;11.814;2023-03-12T09:33:01;18.19;65.59
61000;SHT31;46879;45.658;11.814;2023-03-12T09:38:02;18.21;65.52
61000;SHT31;46879;45.658;11.814;2023-03-12T09:43:08;18.22;65.54
61000;SHT31;46879;45.658;11.814;2023-03-12T09:48:33;18.25;65.40
61000;SHT31;46879;45.658;11.814;2023-03-12T09:53:46;18.25;65.32
61000;SHT31;46879;45.658;11.814;2023-03-12T09:58:48;18.23;65.41
61000;SHT31;46879;45.658;11.814;2023-03-12T10:09:35;18.26;65.30
61000;SHT31;46879;45.658;11.814;2023-03-12T10:30:34;18.29;65.25
61000;SHT31;46879;45.658;11.814;2023-03-12T10:35:37;18.30;64.97
61000;SHT31;46879;45.658;11.814;2023-03-12T10:40:40;18.28;65.13
61000;SHT31;46879;45.658;11.814;2023-03-12T10:45:59;18.30;65.01
61000;SHT31;46879;45.658;11.814;2023-03-12T10:51:08;18.32;65.10
61000;SHT31;46879;45.658;11.814;2023-03-12T10:56:13;18.30;65.00
61000;SHT31;46879;45.658;11.814;2023-03-12T11:06:29;18.32;64.83
61000;SHT31;46879;45.658;11.814;2023-03-12T11:11:35;18.30;64.63
61000;SHT31;46879;45.658;11.814;2023-03-12T11:16:35;18.30;64.76
61000;SHT31;46879;45.658;11.814;2023-03-12T11:21:36;18.30;64.65
61000;SHT31;46879;45.658;11.814;2023-03-12T11:27:18;18.33;64.63
61000;SHT31;46879;45.658;11.814;2023-03-12T11:32:42;18.29;64.36
61000;SHT31;46879;45.658;11.814;2023-03-12T11:48:27;18.37;64.81
61000;SHT31;46879;45.658;11.814;2023-03-12T12:32:07;18.36;65.01
61000;SHT31;46879;45.658;11.814;2023-03-12T12:43:27;18.44;70.60
61000;SHT31;46879;45.658;11.814;2023-03-12T12:48:56;18.46;70.35
61000;SHT31;46879;45.658;11.814;2023-03-12T12:54:35;18.46;69.77
61000;SHT31;46879;45.658;11.814;2023-03-12T13:10:38;18.44;70.05
61000;SHT31;46879;45.658;11.814;2023-03-12T13:15:40;18.44;70.06
61000;SHT31;46879;45.658;11.814;2023-03-12T13:26:22;18.44;70.02
61000;SHT31;46879;45.658;11.814;2023-03-12T13:36:28;18.46;69.59
61000;SHT31;46879;45.658;11.814;2023-03-12T13:41:48;18.47;69.38
61000;SHT31;46879;45.658;11.814;2023-03-12T13:52:24;18.47;68.59
61000;SHT31;46879;45.658;11.814;2023-03-12T14:03:05;18.49;68.46
61000;SHT31;46879;45.658;11.814;2023-03-12T14:08:54;18.49;68.65
61000;SHT31;46879;45.658;11.814;2023-03-12T14:19:21;18.50;68.47
61000;SHT31;46879;45.658;11.814;2023-03-12T14:24:27;18.47;68.46
61000;SHT31;46879;45.658;11.814;2023-03-12T14:29:38;18.54;69.73
61000;SHT31;46879;45.658;11.814;2023-03-12T14:34:53;18.59;70.60
61000;SHT31;46879;45.658;11.814;2023-03-12T14:40:01;18.60;70.79
61000;SHT31;46879;45.658;11.814;2023-03-12T14:45:11;18.61;70.72
61000;SHT31;46879;45.658;11.814;2023-03-12T14:50:40;18.57;70.50
61000;SHT31;46879;45.658;11.814;2023-03-12T14:55:39;18.59;70.21
61000;SHT31;46879;45.658;11.814;2023-03-12T15:00:42;18.57;70.00
61000;SHT31;46879;45.658;11.814;2023-03-12T15:05:47;18.57;69.87
61000;SHT31;46879;45.658;11.814;2023-03-12T15:10:52;18.56;69.68
61000;SHT31;46879;45.658;11.814;2023-03-12T15:15:54;18.59;69.56
61000;SHT31;46879;45.658;11.814;2023-03-12T15:20:56;18.60;69.34
61000;SHT31;46879;45.658;11.814;2023-03-12T15:26:28;18.61;69.18
61000;SHT31;46879;45.658;11.814;2023-03-12T15:31:48;18.60;68.80
61000;SHT31;46879;45.658;11.814;2023-03-12T15:36:48;18.63;68.62
61000;SHT31;46879;45.658;11.814;2023-03-12T15:41:51;18.61;68.52
61000;SHT31;46879;45.658;11.814;2023-03-12T15:47:14;18.61;68.40
61000;SHT31;46879;45.658;11.814;2023-03-12T15:57:25;18.60;68.25
61000;SHT31;46879;45.658;11.814;2023-03-12T16:07:46;18.61;68.07
61000;SHT31;46879;45.658;11.814;2023-03-12T16:12:48;18.61;68.00
61000;SHT31;46879;45.658;11.814;2023-03-12T16:17:49;18.59;67.81
61000;SHT31;46879;45.658;11.814;2023-03-12T16:22:50;18.60;67.72
61000;SHT31;46879;45.658;11.814;2023-03-12T16:27:55;18.61;67.61
61000;SHT31;46879;45.658;11.814;2023-03-12T16:32:58;18.60;67.49
61000;SHT31;46879;45.658;11.814;2023-03-12T16:38:00;18.59;67.37
61000;SHT31;46879;45.658;11.814;2023-03-12T16:43:02;18.57;67.34
61000;SHT31;46879;45.658;11.814;2023-03-12T16:48:05;18.59;67.28
61000;SHT31;46879;45.658;11.814;2023-03-12T16:53:06;18.56;67.08
61000;SHT31;46879;45.658;11.814;2023-03-12T16:58:11;18.56;66.99
61000;SHT31;46879;45.658;11.814;2023-03-12T17:03:23;18.54;66.93
61000;SHT31;46879;45.658;11.814;2023-03-12T17:08:26;18.54;66.87
61000;SHT31;46879;45.658;11.814;2023-03-12T17:13:28;18.51;66.74
61000;SHT31;46879;45.658;11.814;2023-03-12T17:18:29;18.56;73.18
61000;SHT31;46879;45.658;11.814;2023-03-12T17:23:29;18.57;73.25
61000;SHT31;46879;45.658;11.814;2023-03-12T17:28:30;18.57;72.72
61000;SHT31;46879;45.658;11.814;2023-03-12T17:33:30;18.67;72.46
61000;SHT31;46879;45.658;11.814;2023-03-12T17:38:32;18.74;71.94
61000;SHT31;46879;45.658;11.814;2023-03-12T17:43:33;18.77;71.66
61000;SHT31;46879;45.658;11.814;2023-03-12T17:48:34;18.81;71.62
61000;SHT31;46879;45.658;11.814;2023-03-12T17:53:36;18.84;71.53
61000;SHT31;46879;45.658;11.814;2023-03-12T17:58:38;18.72;71.65
61000;SHT31;46879;45.658;11.814;2023-03-12T18:03:39;18.68;71.60
61000;SHT31;46879;45.658;11.814;2023-03-12T18:08:40;18.65;71.54
61000;SHT31;46879;45.658;11.814;2023-03-12T18:13:40;18.65;71.39
61000;SHT31;46879;45.658;11.814;2023-03-12T18:18:41;18.64;71.40
61000;SHT31;46879;45.658;11.814;2023-03-12T18:23:42;18.60;71.38
61000;SHT31;46879;45.658;11.814;2023-03-12T18:28:43;18.61;71.36
61000;SHT31;46879;45.658;11.814;2023-03-12T18:33:43;18.56;71.18
61000;SHT31;46879;45.658;11.814;2023-03-12T18:38:45;18.57;71.08
61000;SHT31;46879;45.658;11.814;2023-03-12T18:43:45;18.54;71.06
61000;SHT31;46879;45.658;11.814;2023-03-12T18:48:46;18.51;71.00
61000;SHT31;46879;45.658;11.814;2023-03-12T18:53:47;18.53;70.87
61000;SHT31;46879;45.658;11.814;2023-03-12T18:58:47;18.54;70.80
61000;SHT31;46879;45.658;11.814;2023-03-12T19:03:48;18.49;70.72
61000;SHT31;46879;45.658;11.814;2023-03-12T19:08:48;18.50;70.63
61000;SHT31;46879;45.658;11.814;2023-03-12T19:13:50;18.49;70.60
61000;SHT31;46879;45.658;11.814;2023-03-12T19:18:54;18.46;70.57
61000;SHT31;46879;45.658;11.814;2023-03-12T19:23:54;18.47;70.55
61000;SHT31;46879;45.658;11.814;2023-03-12T19:28:55;18.47;70.49
61000;SHT31;46879;45.658;11.814;2023-03-12T19:33:56;18.44;70.30
61000;SHT31;46879;45.658;11.814;2023-03-12T19:38:56;18.43;70.22
61000;SHT31;46879;45.658;11.814;2023-03-12T19:43:57;18.42;70.06
61000;SHT31;46879;45.658;11.814;2023-03-12T19:48:57;18.42;69.93
61000;SHT31;46879;45.658;11.814;2023-03-12T19:53:58;18.40;69.74
61000;SHT31;46879;45.658;11.814;2023-03-12T19:58:58;18.40;69.59
61000;SHT31;46879;45.658;11.814;2023-03-12T20:03:59;18.39;69.39
61000;SHT31;46879;45.658;11.814;2023-03-12T20:09:00;18.42;69.26
61000;SHT31;46879;45.658;11.814;2023-03-12T20:14:02;18.39;69.17
61000;SHT31;46879;45.658;11.814;2023-03-12T20:19:03;18.37;69.17
61000;SHT31;46879;45.658;11.814;2023-03-12T20:24:04;18.39;69.04
61000;SHT31;46879;45.658;11.814;2023-03-12T20:29:05;18.34;69.06
61000;SHT31;46879;45.658;11.814;2023-03-12T20:34:06;18.36;69.02
61000;SHT31;46879;45.658;11.814;2023-03-12T20:39:06;18.34;69.02
61000;SHT31;46879;45.658;11.814;2023-03-12T20:44:07;18.36;69.01
61000;SHT31;46879;45.658;11.814;2023-03-12T20:49:09;18.33;68.93
61000;SHT31;46879;45.658;11.814;2023-03-12T20:54:10;18.36;68.82
61000;SHT31;46879;45.658;11.814;2023-03-12T20:59:12;18.34;68.73
61000;SHT31;46879;45.658;11.814;2023-03-12T21:04:13;18.30;68.72
61000;SHT31;46879;45.658;11.814;2023-03-12T21:09:14;18.34;68.67
61000;SHT31;46879;45.658;11.814;2023-03-12T21:14:14;18.34;68.77
61000;SHT31;46879;45.658;11.814;2023-03-12T21:19:15;18.33;68.83
61000;SHT31;46879;45.658;11.814;2023-03-12T21:24:16;18.32;68.85
61000;SHT31;46879;45.658;11.814;2023-03-12T21:29:16;18.32;68.86
61000;SHT31;46879;45.658;11.814;2023-03-12T21:34:17;18.32;68.94
61000;SHT31;46879;45.658;11.814;2023-03-12T21:39:17;18.33;68.75
61000;SHT31;46879;45.658;11.814;2023-03-12T21:44:18;18.29;68.63
61000;SHT31;46879;45.658;11.814;2023-03-12T21:49:18;18.32;68.53
61000;SHT31;46879;45.658;11.814;2023-03-12T21:54:19;18.29;68.08
61000;SHT31;46879;45.658;11.814;2023-03-12T21:59:19;18.33;68.16
61000;SHT31;46879;45.658;11.814;2023-03-12T22:04:20;18.33;68.56
61000;SHT31;46879;45.658;11.814;2023-03-12T22:09:21;18.33;68.78
61000;SHT31;46879;45.658;11.814;2023-03-12T22:14:22;18.30;69.11
61000;SHT31;46879;45.658;11.814;2023-03-12T22:19:23;18.28;69.29
61000;SHT31;46879;45.658;11.814;2023-03-12T22:24:24;18.28;69.43
61000;SHT31;46879;45.658;11.814;2023-03-12T22:29:24;18.28;69.64
61000;SHT31;46879;45.658;11.814;2023-03-12T22:34:25;18.25;69.74
61000;SHT31;46879;45.658;11.814;2023-03-12T22:39:25;18.28;69.94
61000;SHT31;46879;45.658;11.814;2023-03-12T22:44:26;18.26;69.92
61000;SHT31;46879;45.658;11.814;2023-03-12T22:49:26;18.28;70.09
61000;SHT31;46879;45.658;11.814;2023-03-12T22:54:27;18.28;70.21
61000;SHT31;46879;45.658;11.814;2023-03-12T22:59:28;18.26;70.31
61000;SHT31;46879;45.658;11.814;2023-03-12T23:04:28;18.25;70.41
61000;SHT31;46879;45.658;11.814;2023-03-12T23:09:29;18.25;70.46
61000;SHT31;46879;45.658;11.814;2023-03-12T23:14:29;18.25;70.48
61000;SHT31;46879;45.658;11.814;2023-03-12T23:19:33;18.26;70.61
61000;SHT31;46879;45.658;11.814;2023-03-12T23:24:33;18.23;70.66
61000;SHT31;46879;45.658;11.814;2023-03-12T23:29:34;18.25;70.68
61000;SHT31;46879;45.658;11.814;2023-03-12T23:34:35;18.22;70.76
61000;SHT31;46879;45.658;11.814;2023-03-12T23:39:35;18.23;70.83
61000;SHT31;46879;45.658;11.814;2023-03-12T23:44:36;18.23;70.94
61000;SHT31;46879;45.658;11.814;2023-03-12T23:49:38;18.22;70.96
61000;SHT31;46879;45.658;11.814;2023-03-12T23:54:38;18.22;71.06
61000;SHT31;46879;45.658;11.814;2023-03-12T23:59:39;18.22;71.15
